Página principal
METAR-TAF:

METAR-TAF

Aeroportos :

Funchal, Madeira, Portugal

Aeroporto da Madeira

latitude: 32-41-52N, longitude: 016-46-28W, altura: 59 m

Observação actual do tempo

O boletim foi feito há 28 minutos, às 20:30 UTC
Vento 13 kt de nor-nordeste, variando entre noroeste e es-nordeste
Temperatura 22°C
Humidade 73%
Pressão 1020 hPa
Visibilidade 10 km ou mais
Nuvens dispersasa uma altura de 1300 ft

METAR: LPMA 172030Z 02013KT 320V060 9999 SCT013 22/17 Q1020

Hora: 21:58 (20:58 UTC)

Previsão

O boletim foi feito há 3 horas e 58 minutos, às 17:00 UTC
Previsão válida de 17 às 18 UTC a 18 às 18 UTC
Vento 13 kt de nor-nordeste
Visibilidade 10 km ou mais
Nuvens dispersasa uma altura de 1500 ft
Temporariamente
de 17 às 18 UTC a 18 às 18 UTC
Vento 18 kt de nor-nordeste com rajadas de 30 kt
Nuvens fragmentadasa uma altura de 1500 ft

TAF: LPMA 171700Z 1718/1818 02013KT 9999 SCT015 TEMPO 1718/1818 02018G30KT BKN015

Observações e previsões do tempo de mais de 4000 aeroportos (mensagens METAR e TAF).

As estações disponíveis são os pontos amarelos e vermelhos sobre o mapa.

Mova o rato sobre o mapa para ver o nome da estação.

Depois clique no ponto para visualizar as observações e previsões meteorológicas.

Para alterar o mapa : clique nos botões verdes com uma cruz preta para aumentar o zoom; no botão verde com uma pitada de zoom; ou nas setas verdes para mapas adjacentes.


METAR-TAF: